createdAt,value
2022-12-25T00:02:10.365Z,11.98
2022-12-25T00:05:15.179Z,12.13
2022-12-25T00:08:22.665Z,12.25
2022-12-25T00:11:27.456Z,10.55
2022-12-25T00:14:32.241Z,10.88
2022-12-25T00:17:37.043Z,11.02
2022-12-25T00:20:41.776Z,11.27
2022-12-25T00:23:49.258Z,10.00
2022-12-25T00:26:54.019Z,10.38
2022-12-25T00:29:58.790Z,10.60
2022-12-25T00:33:03.607Z,9.65
2022-12-25T00:36:10.205Z,10.18
2022-12-25T00:39:17.630Z,10.30
2022-12-25T00:42:23.898Z,9.93
2022-12-25T00:45:29.066Z,9.35
2022-12-25T00:48:34.505Z,10.38
2022-12-25T00:51:39.354Z,9.65
2022-12-25T00:54:46.801Z,9.75
2022-12-25T00:57:51.567Z,10.40
2022-12-25T01:00:56.433Z,7.07
2022-12-25T01:04:01.814Z,6.70
2022-12-25T01:07:06.569Z,8.13
2022-12-25T01:10:24.654Z,7.00
2022-12-25T01:13:30.161Z,7.30
2022-12-25T01:16:35.212Z,7.25
2022-12-25T01:19:40.021Z,7.40
2022-12-25T01:22:45.303Z,6.97
2022-12-25T01:25:52.719Z,7.90
2022-12-25T01:28:57.604Z,7.15
2022-12-25T01:32:02.408Z,6.90
2022-12-25T01:35:07.886Z,8.32
2022-12-25T01:38:12.635Z,7.93
2022-12-25T01:41:22.868Z,6.90
2022-12-25T01:44:57.666Z,6.72
2022-12-25T01:48:03.485Z,6.88
2022-12-25T01:51:14.146Z,9.40
2022-12-25T01:54:23.515Z,7.45
2022-12-25T01:57:35.209Z,7.68
2022-12-25T02:00:40.051Z,7.57
2022-12-25T02:03:45.277Z,6.95
2022-12-25T02:06:51.854Z,7.10
2022-12-25T02:09:57.199Z,6.38
2022-12-25T02:13:05.712Z,6.78
2022-12-25T02:16:16.828Z,7.05
2022-12-25T02:19:39.610Z,7.35
2022-12-25T02:23:02.615Z,7.18
2022-12-25T02:26:19.421Z,6.57
2022-12-25T02:29:33.536Z,7.28
2022-12-25T02:32:44.997Z,7.82
2022-12-25T02:35:54.958Z,7.43
2022-12-25T02:39:15.584Z,7.75
2022-12-25T02:42:49.375Z,7.28
2022-12-25T02:46:12.282Z,7.40
2022-12-25T02:49:34.108Z,7.13
2022-12-25T02:52:51.318Z,7.85
2022-12-25T02:56:10.386Z,6.95
2022-12-25T02:59:31.265Z,7.40
2022-12-25T03:02:51.778Z,7.78
2022-12-25T03:06:15.215Z,6.93
2022-12-25T03:09:37.341Z,7.15
2022-12-25T03:12:47.147Z,7.22
2022-12-25T03:16:05.577Z,7.97
2022-12-25T03:19:25.177Z,6.75
2022-12-25T03:22:44.045Z,7.20
2022-12-25T03:26:01.330Z,8.23
2022-12-25T03:29:06.554Z,7.88
2022-12-25T03:32:19.165Z,7.25
2022-12-25T03:35:33.364Z,7.53
2022-12-25T03:39:02.638Z,7.28
2022-12-25T03:42:34.436Z,7.65
2022-12-25T03:45:58.030Z,8.90
2022-12-25T03:49:23.909Z,9.30
2022-12-25T03:52:45.825Z,8.55
2022-12-25T03:56:04.376Z,8.60
2022-12-25T03:59:24.039Z,8.98
2022-12-25T04:02:41.815Z,9.50
2022-12-25T04:05:59.139Z,8.88
2022-12-25T04:09:19.182Z,8.95
2022-12-25T04:12:36.428Z,8.90
2022-12-25T04:15:53.447Z,9.15
2022-12-25T04:19:10.646Z,8.77
2022-12-25T04:22:30.715Z,9.35
2022-12-25T04:25:53.315Z,9.35
2022-12-25T04:29:10.502Z,8.85
2022-12-25T04:32:27.742Z,8.85
2022-12-25T04:35:44.959Z,10.80
2022-12-25T04:38:49.727Z,11.73
2022-12-25T04:41:57.065Z,11.23
2022-12-25T04:45:01.897Z,11.32
2022-12-25T04:48:07.058Z,11.98
2022-12-25T04:51:19.777Z,12.10
2022-12-25T04:54:24.682Z,10.98
2022-12-25T04:57:32.229Z,9.10
2022-12-25T05:00:37.311Z,8.70
2022-12-25T05:03:42.656Z,9.40
2022-12-25T05:06:47.490Z,7.90
2022-12-25T05:09:52.292Z,8.10
2022-12-25T05:12:59.771Z,7.80
2022-12-25T05:16:08.098Z,8.93
2022-12-25T05:19:13.489Z,7.88
2022-12-25T05:22:18.326Z,8.90
2022-12-25T05:25:23.061Z,8.60
2022-12-25T05:28:30.424Z,8.43
2022-12-25T05:31:35.267Z,8.82
2022-12-25T05:34:40.133Z,8.77
2022-12-25T05:37:44.906Z,10.88
2022-12-25T05:40:49.682Z,8.20
2022-12-25T05:43:58.022Z,8.52
2022-12-25T05:47:02.785Z,8.88
2022-12-25T05:50:08.992Z,8.30
2022-12-25T05:53:16.370Z,7.95
2022-12-25T05:56:21.106Z,7.60
2022-12-25T05:59:28.687Z,8.10
2022-12-25T06:02:33.712Z,8.10
2022-12-25T06:05:41.352Z,8.02
2022-12-25T06:08:46.455Z,8.63
2022-12-25T06:11:51.199Z,7.50
2022-12-25T06:14:58.695Z,7.20
2022-12-25T06:18:03.575Z,7.47
2022-12-25T06:21:10.998Z,7.32
2022-12-25T06:24:21.061Z,7.85
2022-12-25T06:27:26.476Z,7.38
2022-12-25T06:30:33.895Z,7.55
2022-12-25T06:33:39.253Z,8.10
2022-12-25T06:36:44.545Z,7.93
2022-12-25T06:39:49.969Z,8.23
2022-12-25T06:42:55.655Z,8.15
2022-12-25T06:46:05.573Z,8.52
2022-12-25T06:49:10.582Z,8.43
2022-12-25T06:52:15.418Z,8.40
2022-12-25T06:55:20.289Z,8.50
2022-12-25T06:58:25.026Z,7.47
2022-12-25T07:01:35.467Z,8.02
2022-12-25T07:04:43.707Z,8.57
2022-12-25T07:07:48.572Z,7.22
2022-12-25T07:10:53.364Z,7.85
2022-12-25T07:13:58.434Z,7.68
2022-12-25T07:17:05.834Z,7.38
2022-12-25T07:20:12.114Z,7.22
2022-12-25T07:23:16.882Z,7.28
2022-12-25T07:26:22.233Z,7.78
2022-12-25T07:29:27.035Z,8.38
2022-12-25T07:32:36.096Z,8.25
2022-12-25T07:35:40.946Z,8.75
2022-12-25T07:38:46.027Z,8.30
2022-12-25T07:41:51.178Z,8.70
2022-12-25T07:44:56.040Z,8.95
2022-12-25T07:48:06.226Z,9.18
2022-12-25T07:51:16.281Z,9.40
2022-12-25T07:54:21.352Z,8.23
2022-12-25T07:57:26.458Z,9.57
2022-12-25T08:00:32.919Z,9.18
2022-12-25T08:03:40.626Z,7.78
2022-12-25T08:06:45.633Z,8.77
2022-12-25T08:09:50.471Z,7.60
2022-12-25T08:13:01.446Z,8.65
2022-12-25T08:16:08.803Z,9.00
2022-12-25T08:19:16.413Z,8.63
2022-12-25T08:22:21.192Z,7.75
2022-12-25T08:25:26.123Z,8.13
2022-12-25T08:28:32.508Z,8.10
2022-12-25T08:31:42.444Z,7.40
2022-12-25T08:34:53.538Z,6.88
2022-12-25T08:37:58.369Z,8.70
2022-12-25T08:41:06.386Z,7.35
2022-12-25T08:44:11.153Z,6.97
2022-12-25T08:47:15.930Z,7.20
2022-12-25T08:50:23.419Z,6.22
2022-12-25T08:53:28.701Z,7.50
2022-12-25T08:56:33.579Z,6.40
2022-12-25T08:59:40.825Z,5.90
2022-12-25T09:02:45.835Z,6.32
2022-12-25T09:05:53.625Z,6.57
2022-12-25T09:08:58.549Z,6.40
2022-12-25T09:12:03.372Z,6.25
2022-12-25T09:15:10.267Z,6.43
2022-12-25T09:18:15.290Z,6.82
2022-12-25T09:21:23.509Z,6.40
2022-12-25T09:24:28.443Z,7.40
2022-12-25T09:27:33.324Z,7.20
2022-12-25T09:30:38.368Z,6.70
2022-12-25T09:33:43.385Z,6.72
2022-12-25T09:36:50.780Z,6.97
2022-12-25T09:39:55.521Z,7.93
2022-12-25T09:43:01.735Z,7.13
2022-12-25T09:46:10.407Z,7.03
2022-12-25T09:49:21.677Z,6.82
2022-12-25T09:52:37.716Z,7.30
2022-12-25T09:55:49.142Z,6.90
2022-12-25T09:58:53.919Z,7.50
2022-12-25T10:02:18.973Z,8.15
2022-12-25T10:05:50.753Z,8.38
2022-12-25T10:09:23.846Z,8.07
2022-12-25T10:12:51.099Z,8.18
2022-12-25T10:16:07.215Z,8.20
2022-12-25T10:19:27.106Z,8.00
2022-12-25T10:22:37.479Z,8.80
2022-12-25T10:25:46.438Z,8.80
2022-12-25T10:29:01.032Z,8.15
2022-12-25T10:32:05.943Z,8.32
2022-12-25T10:35:15.059Z,8.48
2022-12-25T10:38:21.713Z,8.38
2022-12-25T10:41:40.809Z,8.65
2022-12-25T10:44:57.724Z,7.65
2022-12-25T10:48:08.314Z,7.40
2022-12-25T10:51:13.699Z,7.57
2022-12-25T10:54:24.989Z,7.97
2022-12-25T10:57:32.464Z,7.18
2022-12-25T11:00:37.320Z,8.05
2022-12-25T11:03:43.951Z,7.28
2022-12-25T11:06:59.734Z,7.43
2022-12-25T11:10:08.098Z,7.65
2022-12-25T11:13:25.139Z,7.70
2022-12-25T11:16:33.239Z,7.07
2022-12-25T11:19:38.367Z,7.45
2022-12-25T11:22:48.069Z,7.78
2022-12-25T11:26:00.943Z,8.43
2022-12-25T11:29:28.178Z,7.70
2022-12-25T11:32:39.986Z,9.05
2022-12-25T11:35:50.665Z,8.55
2022-12-25T11:38:55.556Z,7.70
2022-12-25T11:42:05.627Z,7.80
2022-12-25T11:45:18.613Z,7.75
2022-12-25T11:48:30.404Z,9.25
2022-12-25T11:51:38.465Z,8.35
2022-12-25T11:54:53.146Z,7.65
2022-12-25T11:58:01.419Z,8.05
2022-12-25T12:01:18.480Z,9.10
2022-12-25T12:04:31.050Z,8.20
2022-12-25T12:07:39.269Z,7.97
2022-12-25T12:10:59.352Z,8.27
2022-12-25T12:14:19.671Z,7.78
2022-12-25T12:17:27.118Z,7.93
2022-12-25T12:20:34.140Z,7.75
2022-12-25T12:23:50.843Z,7.93
2022-12-25T12:27:07.513Z,7.78
2022-12-25T12:30:26.921Z,7.30
2022-12-25T12:33:39.374Z,7.07
2022-12-25T12:36:44.395Z,6.65
2022-12-25T12:39:56.221Z,6.97
2022-12-25T12:43:01.089Z,6.45
2022-12-25T12:46:11.343Z,6.95
2022-12-25T12:49:25.332Z,6.60
2022-12-25T12:52:35.251Z,6.53
2022-12-25T12:55:40.228Z,6.90
2022-12-25T12:58:51.301Z,6.57
2022-12-25T13:02:13.674Z,5.60
2022-12-25T13:05:32.332Z,5.70
2022-12-25T13:08:56.437Z,5.80
2022-12-25T13:12:01.472Z,5.38
2022-12-25T13:15:07.228Z,5.13
2022-12-25T13:18:15.483Z,5.70
2022-12-25T13:21:26.065Z,5.63
2022-12-25T13:24:32.476Z,5.38
2022-12-25T13:27:37.421Z,4.72
2022-12-25T13:30:42.386Z,4.80
2022-12-25T13:33:49.791Z,4.57
2022-12-25T13:36:57.636Z,4.38
2022-12-25T13:40:04.830Z,5.25
2022-12-25T13:43:13.418Z,3.90
2022-12-25T13:46:18.983Z,4.10
2022-12-25T13:49:25.930Z,4.63
2022-12-25T13:52:37.078Z,4.63
2022-12-25T13:55:42.406Z,4.40
2022-12-25T13:58:50.368Z,4.72
2022-12-25T14:01:57.908Z,4.13
2022-12-25T14:05:02.825Z,4.47
2022-12-25T14:08:17.447Z,4.75
2022-12-25T14:11:24.899Z,4.47
2022-12-25T14:14:29.754Z,5.07
2022-12-25T14:17:36.310Z,4.72
2022-12-25T14:20:44.867Z,5.10
2022-12-25T14:23:53.524Z,5.10
2022-12-25T14:27:03.395Z,4.57
2022-12-25T14:30:16.089Z,4.78
2022-12-25T14:33:23.903Z,4.90
2022-12-25T14:36:29.652Z,5.18
2022-12-25T14:39:39.169Z,5.45
2022-12-25T14:42:43.983Z,5.47
2022-12-25T14:45:57.754Z,6.13
2022-12-25T14:49:04.271Z,6.00
2022-12-25T14:52:17.892Z,6.50
2022-12-25T14:55:28.015Z,5.90
2022-12-25T14:58:35.357Z,6.00
2022-12-25T15:01:44.769Z,5.80
2022-12-25T15:04:49.702Z,6.63
2022-12-25T15:08:06.552Z,7.00
2022-12-25T15:11:14.362Z,5.82
2022-12-25T15:14:19.096Z,5.93
2022-12-25T15:17:29.419Z,7.00
2022-12-25T15:20:37.235Z,6.13
2022-12-25T15:23:41.974Z,6.13
2022-12-25T15:26:49.403Z,6.53
2022-12-25T15:30:10.766Z,7.10
2022-12-25T15:33:20.271Z,6.45
2022-12-25T15:36:25.782Z,6.43
2022-12-25T15:39:31.095Z,7.20
2022-12-25T15:42:38.508Z,7.00
2022-12-25T15:45:45.094Z,7.85
2022-12-25T15:48:49.826Z,7.47
2022-12-25T15:51:54.633Z,8.27
2022-12-25T15:54:59.366Z,8.60
2022-12-25T15:58:06.841Z,10.02
2022-12-25T16:01:16.493Z,9.23
2022-12-25T16:04:21.668Z,8.35
2022-12-25T16:07:29.089Z,9.05
2022-12-25T16:10:38.628Z,8.35
2022-12-25T16:13:46.444Z,8.85
2022-12-25T16:16:51.689Z,8.88
2022-12-25T16:19:56.762Z,8.57
2022-12-25T16:23:01.556Z,9.27
2022-12-25T16:26:06.680Z,10.15
2022-12-25T16:29:17.623Z,11.73
2022-12-25T16:32:22.868Z,9.90
2022-12-25T16:35:27.966Z,11.52
2022-12-25T16:38:35.703Z,12.25
2022-12-25T16:41:40.835Z,11.30
2022-12-25T16:44:48.530Z,10.13
2022-12-25T16:47:53.582Z,10.30
2022-12-25T16:50:58.606Z,10.93
2022-12-25T16:54:03.950Z,15.98
2022-12-25T16:57:08.957Z,15.27
2022-12-25T17:00:18.321Z,19.08
2022-12-25T17:03:25.297Z,17.98
2022-12-25T17:06:31.105Z,13.10
2022-12-25T17:09:42.100Z,11.65
2022-12-25T17:12:48.990Z,11.95
2022-12-25T17:15:56.612Z,15.13
2022-12-25T17:19:04.381Z,13.73
2022-12-25T17:22:09.245Z,14.07
2022-12-25T17:25:14.119Z,12.38
2022-12-25T17:28:19.069Z,11.20
2022-12-25T17:31:26.703Z,14.77
2022-12-25T17:34:31.475Z,17.90
2022-12-25T17:37:36.738Z,15.32
2022-12-25T17:40:41.888Z,14.55
2022-12-25T17:43:47.091Z,12.75
2022-12-25T17:46:54.572Z,12.63
2022-12-25T17:49:59.425Z,16.10
2022-12-25T17:53:05.401Z,15.77
2022-12-25T17:56:11.492Z,15.57
2022-12-25T17:59:18.801Z,16.13
2022-12-25T18:02:26.872Z,15.68
2022-12-25T18:05:31.745Z,14.43
2022-12-25T18:08:39.622Z,13.65
2022-12-25T18:11:46.214Z,16.52
2022-12-25T18:14:51.154Z,16.27
2022-12-25T18:17:58.582Z,15.45
2022-12-25T18:21:03.875Z,15.95
2022-12-25T18:24:10.620Z,16.38
2022-12-25T18:27:15.501Z,14.85
2022-12-25T18:30:20.495Z,16.38
2022-12-25T18:33:28.840Z,16.50
2022-12-25T18:36:33.731Z,17.88
2022-12-25T18:39:38.610Z,17.42
2022-12-25T18:42:46.321Z,19.17
2022-12-25T18:45:59.280Z,18.08
2022-12-25T18:49:08.791Z,18.67
2022-12-25T18:52:48.124Z,18.38
2022-12-25T18:55:43.643Z,19.17
2022-12-25T18:58:51.587Z,19.45
2022-12-25T19:01:57.782Z,18.75
2022-12-25T19:05:09.265Z,19.15
2022-12-25T19:08:14.419Z,19.45
2022-12-25T19:11:20.116Z,19.52
2022-12-25T19:14:26.083Z,19.52
2022-12-25T19:17:32.103Z,19.27
2022-12-25T19:20:41.562Z,20.98
2022-12-25T19:23:46.675Z,20.50
2022-12-25T19:26:51.636Z,21.42
2022-12-25T19:29:56.637Z,20.17
2022-12-25T19:33:01.602Z,22.20
2022-12-25T19:36:11.643Z,21.13
2022-12-25T19:39:16.775Z,23.55
2022-12-25T19:42:22.145Z,20.58
2022-12-25T19:45:27.223Z,22.38
2022-12-25T19:48:33.106Z,21.48
2022-12-25T19:51:43.570Z,21.50
2022-12-25T19:54:48.387Z,20.27
2022-12-25T19:57:55.412Z,20.92
2022-12-25T20:01:01.891Z,19.55
2022-12-25T20:04:08.120Z,20.25
2022-12-25T20:07:15.485Z,20.52
2022-12-25T20:10:20.367Z,19.02
2022-12-25T20:13:25.780Z,19.67
2022-12-25T20:16:31.010Z,20.67
2022-12-25T20:19:35.961Z,23.52
2022-12-25T20:22:43.505Z,23.55
2022-12-25T20:25:48.274Z,22.42
2022-12-25T20:28:53.716Z,26.77
2022-12-25T20:31:58.502Z,23.88
2022-12-25T20:35:03.366Z,22.83
2022-12-25T20:38:10.909Z,23.60
2022-12-25T20:41:27.249Z,27.05
2022-12-25T20:44:33.108Z,24.58
2022-12-25T20:47:38.319Z,23.90
2022-12-25T20:50:43.088Z,24.08
2022-12-25T20:53:50.883Z,21.98
2022-12-25T20:56:55.852Z,26.85
2022-12-25T21:00:00.668Z,25.10
2022-12-25T21:03:05.511Z,21.35
2022-12-25T21:06:12.200Z,23.40
2022-12-25T21:09:19.587Z,23.38
2022-12-25T21:12:24.494Z,22.73
2022-12-25T21:15:29.530Z,24.92
2022-12-25T21:18:35.722Z,22.30
2022-12-25T21:21:43.208Z,21.63
2022-12-25T21:24:52.134Z,21.95
2022-12-25T21:27:56.948Z,22.02
2022-12-25T21:31:04.748Z,22.70
2022-12-25T21:34:07.073Z,22.10
2022-12-25T21:37:11.997Z,20.00
2022-12-25T21:40:19.584Z,18.67
2022-12-25T21:43:24.469Z,16.20
2022-12-25T21:46:30.635Z,17.33
2022-12-25T21:49:47.911Z,15.98
2022-12-25T21:52:52.792Z,14.18
2022-12-25T21:56:06.050Z,10.43
2022-12-25T21:59:12.325Z,9.13
2022-12-25T22:02:17.250Z,9.02
2022-12-25T22:05:34.360Z,9.35
2022-12-25T22:08:39.075Z,7.78
2022-12-25T22:11:59.291Z,6.90
2022-12-25T22:15:07.311Z,7.53
2022-12-25T22:18:24.813Z,6.07
2022-12-25T22:21:29.675Z,5.30
2022-12-25T22:24:34.472Z,4.20
2022-12-25T22:27:43.822Z,4.30
2022-12-25T22:30:48.755Z,4.10
2022-12-25T22:33:53.525Z,4.05
2022-12-25T22:36:58.963Z,5.10
2022-12-25T22:40:04.193Z,4.07
2022-12-25T22:43:11.724Z,3.80
2022-12-25T22:46:16.542Z,3.80
2022-12-25T22:49:22.007Z,4.10
2022-12-25T22:52:26.972Z,3.65
2022-12-25T22:55:31.949Z,3.67
2022-12-25T22:58:39.462Z,4.18
2022-12-25T23:01:44.847Z,3.83
2022-12-25T23:04:49.723Z,3.70
2022-12-25T23:07:54.689Z,3.95
2022-12-25T23:11:04.863Z,3.92
2022-12-25T23:14:25.594Z,3.50
2022-12-25T23:17:42.982Z,3.63
2022-12-25T23:21:00.227Z,3.88
2022-12-25T23:24:17.431Z,3.47
2022-12-25T23:27:23.019Z,4.15
2022-12-25T23:30:27.821Z,3.38
2022-12-25T23:33:32.705Z,3.38
2022-12-25T23:36:37.660Z,3.47
2022-12-25T23:39:42.566Z,3.63
2022-12-25T23:42:47.361Z,3.22
2022-12-25T23:45:54.753Z,3.13
2022-12-25T23:48:59.931Z,3.40
2022-12-25T23:52:04.841Z,3.28
2022-12-25T23:55:11.646Z,3.13
2022-12-25T23:58:16.465Z,3.20
